createdAt,value
2019-01-27T00:00:44.997Z,-3.60
2019-01-27T00:01:50.185Z,-3.60
2019-01-27T00:02:55.024Z,-3.60
2019-01-27T00:04:00.053Z,-3.60
2019-01-27T00:05:05.475Z,-3.60
2019-01-27T00:06:10.617Z,-3.60
2019-01-27T00:07:15.492Z,-3.60
2019-01-27T00:08:20.441Z,-3.60
2019-01-27T00:09:25.588Z,-3.60
2019-01-27T00:10:30.584Z,-3.60
2019-01-27T00:11:35.682Z,-3.60
2019-01-27T00:12:40.656Z,-3.60
2019-01-27T00:13:45.648Z,-3.60
2019-01-27T00:14:50.708Z,-3.60
2019-01-27T00:15:55.723Z,-3.50
2019-01-27T00:17:00.649Z,-3.60
2019-01-27T00:18:06.072Z,-3.60
2019-01-27T00:19:11.161Z,-3.60
2019-01-27T00:20:17.004Z,-3.60
2019-01-27T00:21:21.754Z,-3.60
2019-01-27T00:22:26.504Z,-3.60
2019-01-27T00:23:31.617Z,-3.60
2019-01-27T00:24:36.590Z,-3.70
2019-01-27T00:25:41.507Z,-3.70
2019-01-27T00:27:39.881Z,-3.70
2019-01-27T00:29:24.260Z,-3.70
2019-01-27T00:31:25.924Z,-3.60
2019-01-27T00:32:30.851Z,-3.70
2019-01-27T00:33:35.755Z,-3.60
2019-01-27T00:34:40.761Z,-3.70
2019-01-27T00:35:45.552Z,-3.70
2019-01-27T00:36:50.375Z,-3.60
2019-01-27T00:37:55.455Z,-3.60
2019-01-27T00:39:00.492Z,-3.60
2019-01-27T00:40:06.572Z,-3.60
2019-01-27T00:41:11.517Z,-3.60
2019-01-27T00:42:16.691Z,-3.60
2019-01-27T00:43:21.784Z,-3.60
2019-01-27T00:44:26.735Z,-3.60
2019-01-27T00:45:31.601Z,-3.60
2019-01-27T00:46:36.532Z,-3.60
2019-01-27T00:47:41.427Z,-3.60
2019-01-27T00:48:46.459Z,-3.60
2019-01-27T00:49:51.472Z,-3.60
2019-01-27T00:50:56.469Z,-3.70
2019-01-27T00:52:01.636Z,-3.70
2019-01-27T00:53:07.278Z,-3.70
2019-01-27T00:54:12.269Z,-3.70
2019-01-27T00:55:19.324Z,-3.70
2019-01-27T00:56:24.365Z,-3.80
2019-01-27T00:57:29.357Z,-3.80
2019-01-27T00:58:34.403Z,-3.80
2019-01-27T00:59:39.173Z,-3.90
2019-01-27T01:00:44.250Z,-3.90
2019-01-27T01:01:49.093Z,-3.90
2019-01-27T01:02:54.122Z,-3.80
2019-01-27T01:03:59.224Z,-3.90
2019-01-27T01:05:04.403Z,-3.90
2019-01-27T01:06:09.440Z,-3.90
2019-01-27T01:07:14.447Z,-3.90
2019-01-27T01:08:19.308Z,-3.90
2019-01-27T01:09:24.189Z,-3.90
2019-01-27T01:10:29.144Z,-3.90
2019-01-27T01:11:34.028Z,-3.90
2019-01-27T01:12:38.819Z,-3.90
2019-01-27T01:13:43.588Z,-3.90
2019-01-27T01:14:48.356Z,-3.90
2019-01-27T01:15:53.375Z,-3.80
2019-01-27T01:16:58.305Z,-3.80
2019-01-27T01:18:03.096Z,-3.80
2019-01-27T01:19:08.115Z,-3.80
2019-01-27T01:20:15.700Z,-3.80
2019-01-27T01:21:20.713Z,-3.80
2019-01-27T01:22:25.764Z,-3.80
2019-01-27T01:23:30.620Z,-3.80
2019-01-27T01:24:35.422Z,-3.80
2019-01-27T01:25:40.319Z,-3.80
2019-01-27T01:26:45.364Z,-3.80
2019-01-27T01:27:50.812Z,-3.90
2019-01-27T01:28:55.896Z,-3.90
2019-01-27T01:30:00.756Z,-3.80
2019-01-27T01:31:05.937Z,-3.80
2019-01-27T01:32:10.911Z,-3.80
2019-01-27T01:33:15.668Z,-3.80
2019-01-27T01:34:20.433Z,-3.80
2019-01-27T01:35:25.423Z,-3.80
2019-01-27T01:36:30.377Z,-3.80
2019-01-27T01:37:35.128Z,-3.80
2019-01-27T01:38:40.034Z,-3.80
2019-01-27T01:39:44.889Z,-3.80
2019-01-27T01:40:49.908Z,-3.80
2019-01-27T01:41:54.804Z,-3.90
2019-01-27T01:42:59.958Z,-3.80
2019-01-27T01:44:05.012Z,-3.80
2019-01-27T01:45:16.911Z,-3.80
2019-01-27T01:46:21.685Z,-3.80
2019-01-27T01:47:26.600Z,-3.80
2019-01-27T01:48:31.359Z,-3.90
2019-01-27T01:49:36.208Z,-3.90
2019-01-27T01:50:41.060Z,-3.90
2019-01-27T01:51:45.909Z,-3.90
2019-01-27T01:52:50.999Z,-3.90
2019-01-27T01:53:55.920Z,-3.90
2019-01-27T01:55:00.744Z,-3.90
2019-01-27T01:56:06.333Z,-3.90
2019-01-27T01:57:11.111Z,-4.00
2019-01-27T01:58:15.964Z,-4.00
2019-01-27T01:59:20.966Z,-4.00
2019-01-27T02:00:27.012Z,-4.00
2019-01-27T02:01:31.972Z,-4.00
2019-01-27T02:02:36.963Z,-3.90
2019-01-27T02:03:41.905Z,-3.90
2019-01-27T02:04:46.756Z,-3.90
2019-01-27T02:05:51.707Z,-3.90
2019-01-27T02:06:56.568Z,-3.80
2019-01-27T02:08:01.416Z,-3.80
2019-01-27T02:09:10.868Z,-3.80
2019-01-27T02:10:17.655Z,-3.80
2019-01-27T02:11:22.612Z,-3.80
2019-01-27T02:12:27.408Z,-3.80
2019-01-27T02:13:32.172Z,-3.80
2019-01-27T02:14:37.004Z,-3.80
2019-01-27T02:16:05.128Z,-3.90
2019-01-27T02:17:10.141Z,-3.80
2019-01-27T02:18:15.111Z,-3.80
2019-01-27T02:19:19.872Z,-3.90
2019-01-27T02:20:24.731Z,-3.80
2019-01-27T02:21:29.651Z,-3.80
2019-01-27T02:22:34.655Z,-3.80
2019-01-27T02:23:39.864Z,-3.90
2019-01-27T02:24:44.755Z,-3.80
2019-01-27T02:25:49.742Z,-3.80
2019-01-27T02:26:54.716Z,-3.80
2019-01-27T02:27:59.624Z,-3.80
2019-01-27T02:29:04.944Z,-3.80
2019-01-27T02:30:10.528Z,-3.70
2019-01-27T02:31:15.361Z,-3.80
2019-01-27T02:32:20.101Z,-3.80
2019-01-27T02:33:24.830Z,-3.80
2019-01-27T02:34:29.699Z,-3.90
2019-01-27T02:35:34.701Z,-3.90
2019-01-27T02:36:39.552Z,-3.90
2019-01-27T02:37:44.409Z,-3.90
2019-01-27T02:38:49.253Z,-3.90
2019-01-27T02:39:54.018Z,-3.90
2019-01-27T02:40:58.980Z,-3.90
2019-01-27T02:42:03.966Z,-3.90
2019-01-27T02:43:08.885Z,-4.00
2019-01-27T02:44:13.615Z,-4.00
2019-01-27T02:45:18.509Z,-4.00
2019-01-27T02:46:23.357Z,-3.90
2019-01-27T02:47:28.219Z,-4.00
2019-01-27T02:48:33.028Z,-4.00
2019-01-27T02:49:37.905Z,-4.00
2019-01-27T02:50:42.756Z,-4.00
2019-01-27T02:51:47.622Z,-4.00
2019-01-27T02:52:52.396Z,-4.00
2019-01-27T02:53:57.261Z,-4.00
2019-01-27T02:55:02.126Z,-4.00
2019-01-27T02:56:07.200Z,-4.00
2019-01-27T02:57:12.288Z,-4.00
2019-01-27T02:58:17.220Z,-4.00
2019-01-27T02:59:21.992Z,-4.00
2019-01-27T03:00:26.844Z,-4.00
2019-01-27T03:01:31.720Z,-4.00
2019-01-27T03:02:36.621Z,-3.90
2019-01-27T03:03:41.358Z,-4.00
2019-01-27T03:04:46.230Z,-3.90
2019-01-27T03:06:10.068Z,-3.90
2019-01-27T03:07:27.990Z,-3.90
2019-01-27T03:08:50.897Z,-3.90
2019-01-27T03:09:55.623Z,-3.90
2019-01-27T03:11:00.504Z,-3.90
2019-01-27T03:12:06.528Z,-3.90
2019-01-27T03:13:11.436Z,-3.90
2019-01-27T03:14:16.928Z,-3.80
2019-01-27T03:15:28.516Z,-3.80
2019-01-27T03:16:46.432Z,-3.80
2019-01-27T03:17:51.398Z,-3.80
2019-01-27T03:18:56.310Z,-3.80
2019-01-27T03:20:01.077Z,-3.80
2019-01-27T03:21:05.960Z,-3.80
2019-01-27T03:22:10.804Z,-3.80
2019-01-27T03:23:15.683Z,-3.80
2019-01-27T03:24:20.642Z,-3.80
2019-01-27T03:25:25.381Z,-3.80
2019-01-27T03:26:30.229Z,-3.80
2019-01-27T03:27:35.195Z,-3.80
2019-01-27T03:28:40.202Z,-3.80
2019-01-27T03:29:44.988Z,-3.80
2019-01-27T03:30:49.860Z,-3.80
2019-01-27T03:31:54.809Z,-3.80
2019-01-27T03:32:59.702Z,-3.80
2019-01-27T03:34:04.855Z,-3.80
2019-01-27T03:35:10.299Z,-3.80
2019-01-27T03:36:15.184Z,-3.80
2019-01-27T03:37:19.993Z,-3.70
2019-01-27T03:38:24.782Z,-3.70
2019-01-27T03:39:29.728Z,-3.70
2019-01-27T03:40:34.691Z,-3.70
2019-01-27T03:41:39.650Z,-3.70
2019-01-27T03:42:44.609Z,-3.70
2019-01-27T03:43:49.456Z,-3.70
2019-01-27T03:44:54.320Z,-3.70
2019-01-27T03:45:59.168Z,-3.70
2019-01-27T03:47:04.240Z,-3.70
2019-01-27T03:48:09.257Z,-3.60
2019-01-27T03:49:14.168Z,-3.60
2019-01-27T03:50:19.019Z,-3.70
2019-01-27T03:51:23.879Z,-3.60
2019-01-27T03:52:28.748Z,-3.70
2019-01-27T03:53:33.531Z,-3.70
2019-01-27T03:54:38.261Z,-3.70
2019-01-27T03:55:43.104Z,-3.70
2019-01-27T03:56:47.982Z,-3.60
2019-01-27T03:57:52.870Z,-3.60
2019-01-27T03:58:57.766Z,-3.60
2019-01-27T04:00:02.521Z,-3.60
2019-01-27T04:01:07.695Z,-3.60
2019-01-27T04:02:12.473Z,-3.50
2019-01-27T04:03:17.356Z,-3.60
2019-01-27T04:04:22.227Z,-3.60
2019-01-27T04:05:27.268Z,-3.70
2019-01-27T04:06:32.194Z,-3.70
2019-01-27T04:07:37.005Z,-3.70
2019-01-27T04:08:41.837Z,-3.70
2019-01-27T04:09:46.675Z,-3.60
2019-01-27T04:10:51.593Z,-3.60
2019-01-27T04:11:56.363Z,-3.60
2019-01-27T04:13:01.392Z,-3.60
2019-01-27T04:14:06.564Z,-3.60
2019-01-27T04:15:11.750Z,-3.70
2019-01-27T04:16:16.735Z,-3.70
2019-01-27T04:17:21.476Z,-3.60
2019-01-27T04:18:26.390Z,-3.70
2019-01-27T04:19:31.120Z,-3.60
2019-01-27T04:20:36.096Z,-3.60
2019-01-27T04:21:40.991Z,-3.60
2019-01-27T04:22:45.757Z,-3.60
2019-01-27T04:23:50.524Z,-3.60
2019-01-27T04:24:55.417Z,-3.60
2019-01-27T04:26:00.262Z,-3.60
2019-01-27T04:27:05.161Z,-3.60
2019-01-27T04:28:11.486Z,-3.60
2019-01-27T04:29:16.365Z,-3.60
2019-01-27T04:30:31.829Z,-3.60
2019-01-27T04:31:36.653Z,-3.60
2019-01-27T04:32:41.646Z,-3.60
2019-01-27T04:33:46.506Z,-3.60
2019-01-27T04:34:51.284Z,-3.60
2019-01-27T04:35:56.128Z,-3.60
2019-01-27T04:37:01.004Z,-3.60
2019-01-27T04:38:06.085Z,-3.50
2019-01-27T04:39:11.767Z,-3.60
2019-01-27T04:40:18.839Z,-3.60
2019-01-27T04:41:23.608Z,-3.60
2019-01-27T04:42:28.484Z,-3.60
2019-01-27T04:43:33.374Z,-3.50
2019-01-27T04:44:38.224Z,-3.50
2019-01-27T04:45:42.972Z,-3.50
2019-01-27T04:46:47.824Z,-3.50
2019-01-27T04:47:52.703Z,-3.50
2019-01-27T04:48:57.575Z,-3.50
2019-01-27T04:50:02.347Z,-3.50
2019-01-27T04:51:07.297Z,-3.50
2019-01-27T04:52:12.177Z,-3.50
2019-01-27T04:53:17.048Z,-3.50
2019-01-27T04:54:21.809Z,-3.50
2019-01-27T04:55:27.054Z,-3.50
2019-01-27T04:56:32.128Z,-3.50
2019-01-27T04:57:37.004Z,-3.50
2019-01-27T04:58:41.771Z,-3.50
2019-01-27T04:59:46.615Z,-3.50
2019-01-27T05:00:51.484Z,-3.50
2019-01-27T05:01:56.351Z,-3.50
2019-01-27T05:03:20.061Z,-3.50
2019-01-27T05:04:39.177Z,-3.50
2019-01-27T05:05:44.032Z,-3.50
2019-01-27T05:06:48.769Z,-3.50
2019-01-27T05:07:53.600Z,-3.50
2019-01-27T05:08:58.511Z,-3.50
2019-01-27T05:10:03.339Z,-3.50
2019-01-27T05:11:08.383Z,-3.50
2019-01-27T05:12:13.238Z,-3.50
2019-01-27T05:13:18.160Z,-3.40
2019-01-27T05:14:22.911Z,-3.40
2019-01-27T05:15:28.352Z,-3.50
2019-01-27T05:16:33.228Z,-3.40
2019-01-27T05:17:38.112Z,-3.40
2019-01-27T05:18:42.870Z,-3.40
2019-01-27T05:19:47.766Z,-3.40
2019-01-27T05:20:52.620Z,-3.40
2019-01-27T05:21:57.446Z,-3.40
2019-01-27T05:23:02.196Z,-3.40
2019-01-27T05:24:07.151Z,-3.40
2019-01-27T05:25:12.472Z,-3.40
2019-01-27T05:26:17.436Z,-3.40
2019-01-27T05:27:22.192Z,-3.50
2019-01-27T05:28:27.075Z,-3.40
2019-01-27T05:29:31.936Z,-3.40
2019-01-27T05:30:36.949Z,-3.40
2019-01-27T05:31:41.830Z,-3.40
2019-01-27T05:32:46.868Z,-3.50
2019-01-27T05:33:51.604Z,-3.40
2019-01-27T05:34:56.553Z,-3.40
2019-01-27T05:36:01.420Z,-3.40
2019-01-27T05:37:06.357Z,-3.40
2019-01-27T05:38:11.158Z,-3.40
2019-01-27T05:39:16.261Z,-3.40
2019-01-27T05:40:21.363Z,-3.40
2019-01-27T05:41:26.395Z,-3.40
2019-01-27T05:42:31.132Z,-3.40
2019-01-27T05:43:35.967Z,-3.40
2019-01-27T05:44:40.927Z,-3.40
2019-01-27T05:45:45.808Z,-3.40
2019-01-27T05:46:50.539Z,-3.40
2019-01-27T05:47:55.421Z,-3.40
2019-01-27T05:49:00.284Z,-3.40
2019-01-27T05:50:06.332Z,-3.40
2019-01-27T05:51:11.222Z,-3.40
2019-01-27T05:52:16.105Z,-3.40
2019-01-27T05:53:21.117Z,-3.40
2019-01-27T05:54:25.928Z,-3.40
2019-01-27T05:55:30.820Z,-3.40
2019-01-27T05:56:35.888Z,-3.40
2019-01-27T05:57:40.715Z,-3.40
2019-01-27T05:58:45.617Z,-3.40
2019-01-27T05:59:50.561Z,-3.50
2019-01-27T06:00:55.460Z,-3.50
2019-01-27T06:02:00.383Z,-3.50
2019-01-27T06:03:05.220Z,-3.40
2019-01-27T06:04:10.097Z,-3.40
2019-01-27T06:05:15.004Z,-3.40
2019-01-27T06:06:19.948Z,-3.40
2019-01-27T06:07:24.912Z,-3.40
2019-01-27T06:08:29.859Z,-3.40
2019-01-27T06:09:34.755Z,-3.40
2019-01-27T06:10:39.608Z,-3.50
2019-01-27T06:11:44.485Z,-3.50
2019-01-27T06:12:49.397Z,-3.50
2019-01-27T06:13:54.283Z,-3.50
2019-01-27T06:14:59.126Z,-3.50
2019-01-27T06:16:04.231Z,-3.50
2019-01-27T06:17:09.094Z,-3.50
2019-01-27T06:18:13.917Z,-3.50
2019-01-27T06:19:18.829Z,-3.50
2019-01-27T06:20:23.920Z,-3.50
2019-01-27T06:21:28.706Z,-3.50
2019-01-27T06:22:33.597Z,-3.50
2019-01-27T06:23:38.450Z,-3.50
2019-01-27T06:24:43.465Z,-3.50
2019-01-27T06:25:48.235Z,-3.50
2019-01-27T06:26:53.305Z,-3.50
2019-01-27T06:27:58.219Z,-3.50
2019-01-27T06:29:03.308Z,-3.50
2019-01-27T06:30:12.373Z,-3.50
2019-01-27T06:31:17.348Z,-3.50
2019-01-27T06:32:40.876Z,-3.50
2019-01-27T06:33:53.396Z,-3.40
2019-01-27T06:34:58.347Z,-3.40
2019-01-27T06:36:03.360Z,-3.40
2019-01-27T06:37:08.404Z,-3.40
2019-01-27T06:38:13.408Z,-3.40
2019-01-27T06:39:18.251Z,-3.40
2019-01-27T06:40:23.092Z,-3.40
2019-01-27T06:41:28.168Z,-3.40
2019-01-27T06:42:33.073Z,-3.40
2019-01-27T06:43:37.845Z,-3.40
2019-01-27T06:44:42.740Z,-3.40
2019-01-27T06:45:47.627Z,-3.40
2019-01-27T06:46:52.570Z,-3.40
2019-01-27T06:47:57.372Z,-3.40
2019-01-27T06:49:02.236Z,-3.40
2019-01-27T06:50:08.452Z,-3.30
2019-01-27T06:51:13.368Z,-3.30
2019-01-27T06:52:18.120Z,-3.40
2019-01-27T06:53:23.068Z,-3.40
2019-01-27T06:54:27.925Z,-3.40
2019-01-27T06:55:32.951Z,-3.30
2019-01-27T06:56:37.762Z,-3.30
2019-01-27T06:57:42.890Z,-3.30
2019-01-27T06:59:16.065Z,-3.30
2019-01-27T07:00:48.284Z,-3.30
2019-01-27T07:02:18.268Z,-3.20
2019-01-27T07:03:45.800Z,-3.30
2019-01-27T07:05:09.807Z,-3.30
2019-01-27T07:06:36.340Z,-3.30
2019-01-27T07:07:58.892Z,-3.30
2019-01-27T07:09:24.189Z,-3.30
2019-01-27T07:11:03.399Z,-3.20
2019-01-27T07:12:42.558Z,-3.20
2019-01-27T07:14:04.786Z,-3.20
2019-01-27T07:15:40.086Z,-3.20
2019-01-27T07:17:06.619Z,-3.20
2019-01-27T07:18:34.491Z,-3.20
2019-01-27T07:20:02.593Z,-3.20
2019-01-27T07:21:22.321Z,-3.20
2019-01-27T07:22:52.124Z,-3.10
2019-01-27T07:24:12.863Z,-3.20
2019-01-27T07:25:39.427Z,-3.10
2019-01-27T07:26:56.657Z,-3.10
2019-01-27T07:28:18.525Z,-3.10
2019-01-27T07:29:44.308Z,-3.10
2019-01-27T07:31:06.360Z,-3.10
2019-01-27T07:32:28.197Z,-3.00
2019-01-27T07:33:43.076Z,-3.00
2019-01-27T07:35:06.758Z,-3.00
2019-01-27T07:36:39.462Z,-3.00
2019-01-27T07:38:12.007Z,-3.00
2019-01-27T07:39:50.831Z,-3.00
2019-01-27T07:41:13.231Z,-3.00
2019-01-27T07:42:48.912Z,-3.00
2019-01-27T07:44:22.936Z,-3.00
2019-01-27T07:45:32.809Z,-3.00
2019-01-27T07:46:47.292Z,-3.00
2019-01-27T07:48:22.888Z,-3.00
2019-01-27T07:49:37.134Z,-3.00
2019-01-27T07:51:00.802Z,-3.00
2019-01-27T07:52:25.276Z,-2.90
2019-01-27T07:54:03.954Z,-2.90
2019-01-27T07:55:18.938Z,-2.90
2019-01-27T07:56:32.299Z,-2.90
2019-01-27T07:57:55.953Z,-2.90
2019-01-27T07:59:10.015Z,-2.80
2019-01-27T08:00:33.510Z,-2.80
2019-01-27T08:01:48.822Z,-2.80
2019-01-27T08:03:15.091Z,-2.80
2019-01-27T08:04:41.773Z,-2.80
2019-01-27T08:06:14.219Z,-2.80
2019-01-27T08:07:40.518Z,-2.70
2019-01-27T08:09:12.934Z,-2.80
2019-01-27T08:10:28.640Z,-2.80
2019-01-27T08:11:42.358Z,-2.80
2019-01-27T08:13:03.789Z,-2.80
2019-01-27T08:14:27.446Z,-2.80
2019-01-27T08:16:01.983Z,-2.80
2019-01-27T08:17:28.273Z,-2.80
2019-01-27T08:19:07.192Z,-2.70
2019-01-27T08:20:30.143Z,-2.70
2019-01-27T08:21:59.491Z,-2.70
2019-01-27T08:23:26.148Z,-2.70
2019-01-27T08:24:52.701Z,-2.70
2019-01-27T08:26:14.301Z,-2.70
2019-01-27T08:27:37.972Z,-2.70
2019-01-27T08:28:57.628Z,-2.60
2019-01-27T08:30:24.183Z,-2.60
2019-01-27T08:31:56.907Z,-2.60
2019-01-27T08:33:11.335Z,-2.60
2019-01-27T08:34:38.062Z,-2.60
2019-01-27T08:35:55.796Z,-2.60
2019-01-27T08:37:25.100Z,-2.60
2019-01-27T08:38:38.870Z,-2.50
2019-01-27T08:40:11.753Z,-2.50
2019-01-27T08:41:47.475Z,-2.50
2019-01-27T08:42:58.161Z,-2.50
2019-01-27T08:44:21.876Z,-2.50
2019-01-27T08:45:41.757Z,-2.50
2019-01-27T08:46:53.592Z,-2.50
2019-01-27T08:47:58.489Z,-2.60
2019-01-27T08:49:03.337Z,-2.50
2019-01-27T08:50:12.271Z,-2.60
2019-01-27T08:51:17.084Z,-2.60
2019-01-27T08:52:21.904Z,-2.60
2019-01-27T08:53:26.782Z,-2.60
2019-01-27T08:54:31.530Z,-2.60
2019-01-27T08:55:36.325Z,-2.60
2019-01-27T08:56:41.154Z,-2.50
2019-01-27T08:57:45.967Z,-2.50
2019-01-27T08:58:50.697Z,-2.50
2019-01-27T08:59:55.587Z,-2.50
2019-01-27T09:01:09.803Z,-2.50
2019-01-27T09:02:33.528Z,-2.50
2019-01-27T09:04:00.221Z,-2.50
2019-01-27T09:05:13.459Z,-2.40
2019-01-27T09:06:35.947Z,-2.40
2019-01-27T09:07:58.206Z,-2.40
2019-01-27T09:09:30.665Z,-2.40
2019-01-27T09:10:53.659Z,-2.40
2019-01-27T09:12:26.197Z,-2.40
2019-01-27T09:13:39.186Z,-2.40
2019-01-27T09:15:06.975Z,-2.40
2019-01-27T09:16:29.319Z,-2.30
2019-01-27T09:17:53.102Z,-2.30
2019-01-27T09:19:24.891Z,-2.30
2019-01-27T09:20:39.129Z,-2.30
2019-01-27T09:21:58.877Z,-2.30
2019-01-27T09:23:25.342Z,-2.20
2019-01-27T09:25:01.261Z,-2.10
2019-01-27T09:26:40.124Z,-2.10
2019-01-27T09:28:06.838Z,-2.10
2019-01-27T09:29:15.478Z,-2.00
2019-01-27T09:30:42.061Z,-2.10
2019-01-27T09:32:20.954Z,-2.10
2019-01-27T09:33:37.567Z,-2.10
2019-01-27T09:35:03.786Z,-2.10
2019-01-27T09:36:20.605Z,-2.10
2019-01-27T09:37:41.976Z,-2.10
2019-01-27T09:39:04.528Z,-2.10
2019-01-27T09:40:33.106Z,-2.10
2019-01-27T09:42:02.569Z,-2.10
2019-01-27T09:43:24.580Z,-2.10
2019-01-27T09:44:54.523Z,-2.10
2019-01-27T09:46:11.209Z,-2.10
2019-01-27T09:47:37.903Z,-2.00
2019-01-27T09:49:01.576Z,-2.00
2019-01-27T09:50:20.672Z,-2.00
2019-01-27T09:51:38.731Z,-2.00
2019-01-27T09:53:06.400Z,-2.00
2019-01-27T09:54:30.024Z,-2.00
2019-01-27T09:55:53.692Z,-2.00
2019-01-27T09:57:26.085Z,-1.90
2019-01-27T09:58:50.231Z,-1.90
2019-01-27T10:00:08.793Z,-1.90
2019-01-27T10:01:32.567Z,-1.90
2019-01-27T10:03:11.316Z,-2.00
2019-01-27T10:04:38.207Z,-2.00
2019-01-27T10:06:04.622Z,-2.00
2019-01-27T10:07:37.326Z,-1.90
2019-01-27T10:08:57.063Z,-2.00
2019-01-27T10:10:21.926Z,-1.90
2019-01-27T10:11:37.034Z,-1.90
2019-01-27T10:12:48.227Z,-1.90
2019-01-27T10:14:10.451Z,-1.90
2019-01-27T10:15:41.220Z,-1.90
2019-01-27T10:16:56.757Z,-1.90
2019-01-27T10:18:09.888Z,-2.00
2019-01-27T10:19:32.414Z,-2.00
2019-01-27T10:21:12.475Z,-2.00
2019-01-27T10:22:26.333Z,-2.00
2019-01-27T10:23:41.438Z,-1.90
2019-01-27T10:25:15.970Z,-1.90
2019-01-27T10:26:27.082Z,-1.80
2019-01-27T10:27:39.493Z,-1.80
2019-01-27T10:29:03.414Z,-1.80
2019-01-27T10:30:20.969Z,-1.80
2019-01-27T10:31:43.608Z,-1.80
2019-01-27T10:33:06.181Z,-1.80
2019-01-27T10:34:25.647Z,-1.80
2019-01-27T10:35:48.280Z,-1.80
2019-01-27T10:37:01.326Z,-1.80
2019-01-27T10:38:34.492Z,-1.80
2019-01-27T10:39:57.736Z,-1.80
2019-01-27T10:41:08.570Z,-1.90
2019-01-27T10:42:34.955Z,-1.80
2019-01-27T10:43:50.790Z,-1.80
2019-01-27T10:45:20.379Z,-1.70
2019-01-27T10:46:35.518Z,-1.70
2019-01-27T10:47:59.373Z,-1.70
2019-01-27T10:49:29.268Z,-1.70
2019-01-27T10:50:48.582Z,-1.70
2019-01-27T10:52:01.226Z,-1.70
2019-01-27T10:53:21.231Z,-1.70
2019-01-27T10:54:45.040Z,-1.60
2019-01-27T10:56:17.769Z,-1.60
2019-01-27T10:57:33.233Z,-1.60
2019-01-27T10:58:57.007Z,-1.50
2019-01-27T11:00:20.810Z,-1.50
2019-01-27T11:01:44.707Z,-1.40
2019-01-27T11:02:59.559Z,-1.40
2019-01-27T11:04:14.762Z,-1.40
2019-01-27T11:05:45.897Z,-1.40
2019-01-27T11:07:07.086Z,-1.30
2019-01-27T11:08:29.768Z,-1.30
2019-01-27T11:09:57.339Z,-1.30
2019-01-27T11:11:21.882Z,-1.30
2019-01-27T11:13:03.812Z,-1.30
2019-01-27T11:14:27.289Z,-1.30
2019-01-27T11:15:53.882Z,-1.40
2019-01-27T11:17:23.648Z,-1.50
2019-01-27T11:19:00.623Z,-1.40
2019-01-27T11:20:26.231Z,-1.50
2019-01-27T11:21:59.093Z,-1.50
2019-01-27T11:23:29.008Z,-1.50
2019-01-27T11:24:44.342Z,-1.40
2019-01-27T11:26:23.011Z,-1.40
2019-01-27T11:27:47.660Z,-1.40
2019-01-27T11:29:09.834Z,-1.40
2019-01-27T11:30:29.898Z,-1.50
2019-01-27T11:31:53.869Z,-1.50
2019-01-27T11:33:16.266Z,-1.40
2019-01-27T11:34:31.089Z,-1.40
2019-01-27T11:36:13.307Z,-1.40
2019-01-27T11:37:26.783Z,-1.50
2019-01-27T11:38:49.088Z,-1.50
2019-01-27T11:40:15.553Z,-1.50
2019-01-27T11:41:37.721Z,-1.40
2019-01-27T11:42:56.685Z,-1.40
2019-01-27T11:44:38.917Z,-1.40
2019-01-27T11:45:50.752Z,-1.30
2019-01-27T11:47:09.574Z,-1.40
2019-01-27T11:48:33.491Z,-1.50
2019-01-27T11:50:09.081Z,-1.40
2019-01-27T11:51:41.689Z,-1.50
2019-01-27T11:52:53.734Z,-1.40
2019-01-27T11:53:58.697Z,-1.40
2019-01-27T11:55:03.736Z,-1.40
2019-01-27T11:56:08.813Z,-1.40
2019-01-27T11:57:14.028Z,-1.40
2019-01-27T11:58:18.883Z,-1.30
2019-01-27T11:59:23.833Z,-1.30
2019-01-27T12:00:34.756Z,-1.30
2019-01-27T12:01:39.766Z,-1.30
2019-01-27T12:02:46.674Z,-1.40
2019-01-27T12:03:51.374Z,-1.40
2019-01-27T12:04:56.444Z,-1.40
2019-01-27T12:06:01.719Z,-1.30
2019-01-27T12:07:06.637Z,-1.30
2019-01-27T12:08:22.807Z,-1.30
2019-01-27T12:10:30.210Z,-1.30
2019-01-27T12:11:35.144Z,-1.40
2019-01-27T12:12:40.173Z,-1.40
2019-01-27T12:13:45.195Z,-1.40
2019-01-27T12:15:12.114Z,-1.40
2019-01-27T12:16:17.214Z,-1.40
2019-01-27T12:17:22.156Z,-1.40
2019-01-27T12:18:27.112Z,-1.40
2019-01-27T12:19:32.184Z,-1.40
2019-01-27T12:20:37.192Z,-1.40
2019-01-27T12:21:42.436Z,-1.30
2019-01-27T12:22:47.493Z,-1.30
2019-01-27T12:23:52.392Z,-1.30
2019-01-27T12:24:57.309Z,-1.30
2019-01-27T12:26:02.092Z,-1.30
2019-01-27T12:27:07.355Z,-1.40
2019-01-27T12:28:12.168Z,-1.30
2019-01-27T12:29:17.144Z,-1.40
2019-01-27T12:30:22.319Z,-1.40
2019-01-27T12:31:27.327Z,-1.40
2019-01-27T12:32:32.393Z,-1.40
2019-01-27T12:33:37.451Z,-1.30
2019-01-27T12:34:42.280Z,-1.30
2019-01-27T12:35:47.319Z,-1.30
2019-01-27T12:36:52.162Z,-1.30
2019-01-27T12:37:57.172Z,-1.40
2019-01-27T12:39:02.074Z,-1.40
2019-01-27T12:40:09.893Z,-1.30
2019-01-27T12:41:14.836Z,-1.30
2019-01-27T12:42:19.810Z,-1.30
2019-01-27T12:43:24.785Z,-1.30
2019-01-27T12:44:29.684Z,-1.30
2019-01-27T12:45:35.043Z,-1.30
2019-01-27T12:46:40.014Z,-1.30
2019-01-27T12:47:45.172Z,-1.30
2019-01-27T12:48:50.093Z,-1.30
2019-01-27T12:49:55.224Z,-1.30
2019-01-27T12:51:00.480Z,-1.30
2019-01-27T12:52:05.520Z,-1.30
2019-01-27T12:53:13.688Z,-1.30
2019-01-27T12:54:18.525Z,-1.30
2019-01-27T12:55:23.516Z,-1.30
2019-01-27T12:56:28.656Z,-1.30
2019-01-27T12:57:33.619Z,-1.30
2019-01-27T12:58:38.531Z,-1.20
2019-01-27T12:59:43.568Z,-1.20
2019-01-27T13:00:52.203Z,-1.30
2019-01-27T13:01:57.167Z,-1.30
2019-01-27T13:03:03.691Z,-1.20
2019-01-27T13:04:08.554Z,-1.20
2019-01-27T13:05:13.995Z,-1.20
2019-01-27T13:06:18.965Z,-1.10
2019-01-27T13:07:23.946Z,-1.10
2019-01-27T13:08:29.034Z,-1.10
2019-01-27T13:09:34.034Z,-1.10
2019-01-27T13:10:38.959Z,-1.10
2019-01-27T13:11:43.928Z,-1.10
2019-01-27T13:12:49.005Z,-1.10
2019-01-27T13:13:54.088Z,-1.10
2019-01-27T13:14:58.918Z,-1.10
2019-01-27T13:16:04.191Z,-1.10
2019-01-27T13:17:11.468Z,-1.20
2019-01-27T13:18:16.416Z,-1.20
2019-01-27T13:19:21.357Z,-1.20
2019-01-27T13:20:26.558Z,-1.20
2019-01-27T13:21:34.975Z,-1.10
2019-01-27T13:22:40.081Z,-1.20
2019-01-27T13:23:45.163Z,-1.20
2019-01-27T13:24:50.341Z,-1.20
2019-01-27T13:25:58.839Z,-1.20
2019-01-27T13:27:03.799Z,-1.20
2019-01-27T13:28:09.531Z,-1.20
2019-01-27T13:29:14.611Z,-1.20
2019-01-27T13:30:21.226Z,-1.20
2019-01-27T13:31:26.103Z,-1.20
2019-01-27T13:32:31.174Z,-1.20
2019-01-27T13:33:36.081Z,-1.30
2019-01-27T13:34:40.916Z,-1.30
2019-01-27T13:35:45.912Z,-1.30
2019-01-27T13:36:50.720Z,-1.30
2019-01-27T13:37:55.750Z,-1.30
2019-01-27T13:39:00.836Z,-1.30
2019-01-27T13:40:08.309Z,-1.30
2019-01-27T13:41:13.493Z,-1.30
2019-01-27T13:42:18.401Z,-1.30
2019-01-27T13:43:23.330Z,-1.30
2019-01-27T13:44:28.681Z,-1.30
2019-01-27T13:45:33.691Z,-1.30
2019-01-27T13:46:38.727Z,-1.30
2019-01-27T13:47:44.339Z,-1.30
2019-01-27T13:48:51.013Z,-1.30
2019-01-27T13:49:56.084Z,-1.30
2019-01-27T13:51:01.110Z,-1.30
2019-01-27T13:52:06.064Z,-1.30
2019-01-27T13:53:12.813Z,-1.30
2019-01-27T13:54:20.251Z,-1.30
2019-01-27T13:55:27.121Z,-1.30
2019-01-27T13:56:32.411Z,-1.20
2019-01-27T13:57:43.302Z,-1.20
2019-01-27T13:58:48.210Z,-1.30
2019-01-27T13:59:53.451Z,-1.30
2019-01-27T14:00:58.301Z,-1.30
2019-01-27T14:02:03.195Z,-1.30
2019-01-27T14:03:08.639Z,-1.20
2019-01-27T14:04:13.687Z,-1.20
2019-01-27T14:05:18.759Z,-1.20
2019-01-27T14:06:23.652Z,-1.30
2019-01-27T14:07:28.613Z,-1.30
2019-01-27T14:08:33.676Z,-1.30
2019-01-27T14:09:38.715Z,-1.30
2019-01-27T14:10:43.609Z,-1.30
2019-01-27T14:11:48.661Z,-1.30
2019-01-27T14:12:53.524Z,-1.30
2019-01-27T14:13:59.105Z,-1.30
2019-01-27T14:15:04.194Z,-1.30
2019-01-27T14:16:09.590Z,-1.30
2019-01-27T14:17:16.000Z,-1.30
2019-01-27T14:18:21.223Z,-1.40
2019-01-27T14:19:26.683Z,-1.30
2019-01-27T14:20:31.644Z,-1.30
2019-01-27T14:21:37.017Z,-1.40
2019-01-27T14:22:42.128Z,-1.40
2019-01-27T14:23:47.274Z,-1.40
2019-01-27T14:24:52.112Z,-1.40
2019-01-27T14:25:56.995Z,-1.40
2019-01-27T14:27:02.052Z,-1.40
2019-01-27T14:28:07.543Z,-1.40
2019-01-27T14:29:12.879Z,-1.30
2019-01-27T14:30:26.061Z,-1.30
2019-01-27T14:31:31.097Z,-1.30
2019-01-27T14:32:36.083Z,-1.40
2019-01-27T14:33:41.049Z,-1.30
2019-01-27T14:34:46.021Z,-1.30
2019-01-27T14:35:50.855Z,-1.30
2019-01-27T14:36:56.007Z,-1.40
2019-01-27T14:38:00.963Z,-1.30
2019-01-27T14:39:08.784Z,-1.30
2019-01-27T14:40:16.688Z,-1.30
2019-01-27T14:41:21.856Z,-1.30
2019-01-27T14:42:26.935Z,-1.30
2019-01-27T14:43:32.072Z,-1.40
2019-01-27T14:44:37.093Z,-1.30
2019-01-27T14:45:42.110Z,-1.30
2019-01-27T14:46:47.356Z,-1.30
2019-01-27T14:47:52.468Z,-1.30
2019-01-27T14:48:57.606Z,-1.30
2019-01-27T14:50:02.531Z,-1.30
2019-01-27T14:51:07.588Z,-1.30
2019-01-27T14:52:12.690Z,-1.30
2019-01-27T14:53:20.786Z,-1.30
2019-01-27T14:54:25.697Z,-1.30
2019-01-27T14:55:30.826Z,-1.30
2019-01-27T14:56:35.826Z,-1.30
2019-01-27T14:57:40.869Z,-1.30
2019-01-27T14:58:45.872Z,-1.30
2019-01-27T14:59:50.913Z,-1.30
2019-01-27T15:00:55.912Z,-1.20
2019-01-27T15:02:00.967Z,-1.30
2019-01-27T15:03:06.805Z,-1.20
2019-01-27T15:04:11.719Z,-1.30
2019-01-27T15:05:16.735Z,-1.30
2019-01-27T15:06:21.713Z,-1.30
2019-01-27T15:07:26.690Z,-1.30
2019-01-27T15:08:31.805Z,-1.30
2019-01-27T15:09:36.717Z,-1.30